Time;durP1;ratioP1;P1;durP2;ratioP2;P2;SDS_P1;SDS_P2;PMS_P1;PMS_P2;Temp;Humidity;BMP_temperature;BMP_pressure;BME280_temperature;BME280_humidity;BME280_pressure;Samples;Min_cycle;Max_cycle;Signal;HPM_P1;HPM_P2
2022/01/20 00:01:16;;;;;;;10.67;4.50;;;;;;;;;;5067614;28;20180;-56
2022/01/20 00:03:43;;;;;;;16.00;3.77;;;;;;;;;;5052985;28;20706;-56
2022/01/20 00:28:16;;;;;;;17.67;5.07;;;;;;;;;;5072342;28;20160;-57
2022/01/20 00:30:50;;;;;;;8.10;3.80;;;;;;;;;;5068665;28;20161;-57
2022/01/20 00:33:33;;;;;;;10.20;3.97;;;;;;;;;;5045768;28;20172;-57
2022/01/20 00:38:37;;;;;;;16.80;4.90;;;;;;;;;;5053279;28;20177;-57
2022/01/20 00:41:04;;;;;;;13.63;4.17;;;;;;;;;;5063910;28;20611;-57
2022/01/20 00:43:33;;;;;;;11.53;4.33;;;;;;;;;;5062949;28;20199;-57
2022/01/20 00:45:59;;;;;;;10.67;3.87;;;;;;;;;;5060146;28;20169;-57
2022/01/20 00:48:43;;;;;;;17.37;5.17;;;;;;;;;;5055231;28;20663;-57
2022/01/20 00:51:12;;;;;;;13.87;4.07;;;;;;;;;;5054451;28;20157;-57
2022/01/20 00:53:43;;;;;;;8.63;4.23;;;;;;;;;;5063551;28;20271;-58
2022/01/20 00:56:11;;;;;;;11.30;4.80;;;;;;;;;;5049759;28;20287;-57
2022/01/20 00:58:38;;;;;;;11.20;3.87;;;;;;;;;;5027889;28;20177;-56
2022/01/20 01:01:06;;;;;;;8.53;3.50;;;;;;;;;;5058832;28;20264;-58
2022/01/20 01:03:33;;;;;;;13.17;4.33;;;;;;;;;;5049343;28;20180;-57
2022/01/20 01:08:30;;;;;;;11.33;3.73;;;;;;;;;;5065426;28;20245;-57
2022/01/20 01:10:56;;;;;;;16.13;4.33;;;;;;;;;;5044068;28;20643;-57
2022/01/20 01:13:25;;;;;;;8.13;3.30;;;;;;;;;;5035300;28;20231;-56
2022/01/20 01:15:52;;;;;;;13.43;3.87;;;;;;;;;;5054651;28;20308;-56
2022/01/20 01:23:38;;;;;;;12.30;3.93;;;;;;;;;;5054899;28;20189;-58
2022/01/20 01:26:05;;;;;;;17.70;4.47;;;;;;;;;;5036849;28;20208;-57
2022/01/20 01:28:32;;;;;;;12.70;3.67;;;;;;;;;;5060914;28;20242;-57
2022/01/20 01:33:26;;;;;;;8.93;4.33;;;;;;;;;;5051863;28;20193;-57
2022/01/20 01:35:58;;;;;;;9.53;3.20;;;;;;;;;;5046071;28;20204;-57
2022/01/20 01:38:38;;;;;;;15.07;4.33;;;;;;;;;;5052553;28;20263;-57
2022/01/20 01:41:16;;;;;;;10.80;3.23;;;;;;;;;;5049715;28;20174;-57
2022/01/20 01:43:46;;;;;;;15.37;3.23;;;;;;;;;;5044596;28;20191;-57
2022/01/20 01:46:14;;;;;;;14.20;4.07;;;;;;;;;;5064506;28;20177;-58
2022/01/20 01:48:41;;;;;;;11.17;3.20;;;;;;;;;;5055097;28;20192;-57
2022/01/20 01:51:08;;;;;;;15.93;4.27;;;;;;;;;;5063998;28;20643;-56
2022/01/20 01:53:37;;;;;;;15.40;3.93;;;;;;;;;;5085097;28;20509;-57
2022/01/20 01:56:04;;;;;;;12.27;3.73;;;;;;;;;;5075183;28;20216;-58
2022/01/20 01:58:31;;;;;;;7.90;2.90;;;;;;;;;;5091599;28;20188;-57
2022/01/20 02:01:02;;;;;;;12.57;3.27;;;;;;;;;;5069618;28;20225;-57
2022/01/20 02:03:31;;;;;;;12.20;4.00;;;;;;;;;;5071134;28;20187;-57
2022/01/20 02:19:18;;;;;;;13.80;3.80;;;;;;;;;;5089992;28;20245;-55
2022/01/20 02:21:50;;;;;;;12.97;2.90;;;;;;;;;;5081194;28;20271;-55
2022/01/20 02:24:17;;;;;;;8.50;2.90;;;;;;;;;;5096211;28;20635;-57
2022/01/20 02:26:44;;;;;;;11.47;2.97;;;;;;;;;;5070021;28;20276;-56
2022/01/20 02:29:16;;;;;;;13.63;3.67;;;;;;;;;;5060913;28;20674;-57
2022/01/20 02:31:43;;;;;;;10.83;3.43;;;;;;;;;;5072664;28;20180;-56
2022/01/20 02:34:13;;;;;;;11.77;3.73;;;;;;;;;;5062910;28;20537;-56
2022/01/20 02:36:45;;;;;;;10.50;3.00;;;;;;;;;;5089905;28;20526;-57
2022/01/20 02:45:03;;;;;;;12.37;3.03;;;;;;;;;;5077064;28;20195;-56
2022/01/20 02:47:31;;;;;;;9.13;2.50;;;;;;;;;;5085176;28;20298;-58
2022/01/20 02:49:57;;;;;;;14.40;3.30;;;;;;;;;;5088203;28;20808;-57
2022/01/20 02:52:24;;;;;;;12.20;2.30;;;;;;;;;;5077624;28;20215;-57
2022/01/20 02:54:51;;;;;;;6.43;2.53;;;;;;;;;;5092327;28;20232;-56
2022/01/20 02:57:18;;;;;;;9.73;3.03;;;;;;;;;;5098309;28;20731;-57
2022/01/20 02:59:45;;;;;;;8.97;3.47;;;;;;;;;;5076731;28;20704;-57
2022/01/20 03:02:14;;;;;;;12.23;2.50;;;;;;;;;;5064653;28;20183;-57
2022/01/20 03:04:41;;;;;;;10.50;2.97;;;;;;;;;;5078228;28;20180;-56
2022/01/20 03:07:07;;;;;;;8.40;2.47;;;;;;;;;;5072888;28;20369;-57
2022/01/20 03:09:34;;;;;;;5.67;2.70;;;;;;;;;;5067419;28;20191;-57
2022/01/20 03:12:00;;;;;;;11.40;2.90;;;;;;;;;;5077055;28;20342;-57
2022/01/20 03:14:26;;;;;;;13.97;3.33;;;;;;;;;;5068924;28;20211;-57
2022/01/20 03:16:57;;;;;;;8.70;2.67;;;;;;;;;;5075526;28;20280;-57
2022/01/20 03:19:26;;;;;;;12.37;3.70;;;;;;;;;;5060624;28;20651;-57
2022/01/20 03:21:52;;;;;;;10.17;2.50;;;;;;;;;;5087718;28;20251;-57
2022/01/20 03:24:18;;;;;;;10.43;3.10;;;;;;;;;;5066199;28;20194;-57
2022/01/20 03:26:45;;;;;;;11.43;3.63;;;;;;;;;;5072581;28;20635;-57
2022/01/20 03:29:11;;;;;;;11.73;3.10;;;;;;;;;;5087872;28;20258;-57
2022/01/20 03:31:40;;;;;;;6.27;2.17;;;;;;;;;;5068299;28;20190;-57
2022/01/20 03:34:06;;;;;;;8.10;2.77;;;;;;;;;;5058845;28;20283;-56
2022/01/20 03:36:36;;;;;;;10.57;3.10;;;;;;;;;;5081478;28;20208;-56
2022/01/20 03:39:07;;;;;;;7.03;1.97;;;;;;;;;;5081865;28;20188;-57
2022/01/20 03:41:36;;;;;;;5.83;2.37;;;;;;;;;;5087685;28;20669;-56
2022/01/20 03:44:02;;;;;;;7.57;2.47;;;;;;;;;;5056473;28;20168;-57
2022/01/20 03:46:30;;;;;;;11.63;2.70;;;;;;;;;;5082679;28;20183;-56
2022/01/20 03:49:07;;;;;;;9.00;2.83;;;;;;;;;;5061731;28;20172;-57
2022/01/20 03:51:33;;;;;;;4.50;2.70;;;;;;;;;;5068693;28;20223;-56
2022/01/20 03:54:00;;;;;;;11.37;2.73;;;;;;;;;;5080712;28;20192;-57
2022/01/20 03:56:26;;;;;;;10.57;2.37;;;;;;;;;;5087228;28;20293;-57
2022/01/20 03:58:55;;;;;;;7.43;2.23;;;;;;;;;;5076830;28;20183;-57
2022/01/20 04:01:27;;;;;;;8.97;2.70;;;;;;;;;;5070373;28;20263;-57
2022/01/20 04:03:53;;;;;;;6.33;1.63;;;;;;;;;;5090701;28;20649;-57
2022/01/20 04:06:20;;;;;;;10.97;2.77;;;;;;;;;;5066491;28;20183;-57
2022/01/20 04:08:50;;;;;;;7.47;2.13;;;;;;;;;;5082779;28;20588;-57
2022/01/20 04:11:28;;;;;;;7.30;2.20;;;;;;;;;;5095702;28;20228;-57
2022/01/20 04:13:55;;;;;;;9.33;2.10;;;;;;;;;;5084017;28;20240;-57
2022/01/20 04:16:32;;;;;;;7.13;2.03;;;;;;;;;;5086915;28;20623;-57
2022/01/20 04:19:03;;;;;;;7.43;2.50;;;;;;;;;;5085256;28;20179;-57
2022/01/20 04:21:30;;;;;;;9.27;2.73;;;;;;;;;;5070101;28;20180;-56
2022/01/20 04:23:57;;;;;;;4.43;1.70;;;;;;;;;;5089309;28;20646;-57
2022/01/20 04:26:24;;;;;;;7.20;2.80;;;;;;;;;;5060673;28;20187;-57
2022/01/20 04:28:56;;;;;;;9.70;2.20;;;;;;;;;;5070370;28;20180;-57
2022/01/20 04:31:23;;;;;;;9.77;2.10;;;;;;;;;;5082155;28;20175;-56
2022/01/20 04:33:50;;;;;;;7.20;2.63;;;;;;;;;;5061342;28;20215;-57
2022/01/20 04:36:19;;;;;;;7.23;1.50;;;;;;;;;;5069881;28;20226;-57
2022/01/20 04:38:45;;;;;;;6.67;2.13;;;;;;;;;;5063495;28;20175;-57
2022/01/20 04:41:11;;;;;;;6.40;2.37;;;;;;;;;;5056035;28;20180;-57
2022/01/20 04:43:41;;;;;;;5.07;2.10;;;;;;;;;;5084497;28;20194;-57
2022/01/20 04:49:11;;;;;;;8.00;3.23;;;;;;;;;;5073985;28;20168;-56
2022/01/20 04:59:34;;;;;;;5.97;1.70;;;;;;;;;;5091292;28;20542;-56
2022/01/20 05:02:03;;;;;;;6.17;1.60;;;;;;;;;;5087495;28;20631;-57
2022/01/20 05:04:29;;;;;;;9.33;2.20;;;;;;;;;;5066302;28;20674;-57
2022/01/20 05:06:57;;;;;;;5.33;2.17;;;;;;;;;;5065459;28;20230;-57
2022/01/20 05:09:34;;;;;;;6.47;1.90;;;;;;;;;;5057542;28;21017;-57
2022/01/20 05:12:10;;;;;;;8.60;2.50;;;;;;;;;;5071747;28;20171;-57
2022/01/20 05:14:39;;;;;;;7.00;3.50;;;;;;;;;;5068647;28;20180;-57
2022/01/20 05:17:08;;;;;;;6.77;2.10;;;;;;;;;;5064945;28;20268;-57
2022/01/20 05:19:34;;;;;;;7.63;3.03;;;;;;;;;;5089728;28;20241;-57
2022/01/20 05:22:03;;;;;;;4.57;2.33;;;;;;;;;;5080077;28;20404;-56
2022/01/20 05:24:29;;;;;;;5.90;2.00;;;;;;;;;;5089423;28;20678;-57
2022/01/20 05:26:57;;;;;;;6.73;3.23;;;;;;;;;;5081867;28;20191;-57
2022/01/20 05:29:24;;;;;;;4.50;2.30;;;;;;;;;;5060463;28;20188;-57
2022/01/20 05:31:50;;;;;;;9.43;2.67;;;;;;;;;;5066992;28;20181;-57
2022/01/20 05:34:23;;;;;;;9.50;3.40;;;;;;;;;;5071560;28;20796;-57
2022/01/20 05:36:52;;;;;;;9.57;2.40;;;;;;;;;;5068023;28;20211;-57
2022/01/20 05:39:26;;;;;;;6.30;2.07;;;;;;;;;;5067507;28;20737;-56
2022/01/20 05:41:52;;;;;;;3.73;2.20;;;;;;;;;;5061957;28;20279;-56
2022/01/20 05:44:18;;;;;;;7.27;2.80;;;;;;;;;;5072073;28;20626;-56
2022/01/20 05:46:48;;;;;;;10.17;2.50;;;;;;;;;;5067065;28;20535;-56
2022/01/20 05:49:20;;;;;;;6.93;2.50;;;;;;;;;;5081005;28;20184;-56
2022/01/20 05:51:55;;;;;;;6.97;2.50;;;;;;;;;;5063380;28;20711;-56
2022/01/20 05:54:22;;;;;;;10.37;3.57;;;;;;;;;;5082203;28;20179;-57
2022/01/20 05:56:49;;;;;;;6.80;1.80;;;;;;;;;;5070017;28;20277;-57
2022/01/20 05:59:15;;;;;;;11.90;2.57;;;;;;;;;;5076272;28;20173;-56
2022/01/20 06:01:41;;;;;;;9.10;2.17;;;;;;;;;;5063883;28;20199;-56
2022/01/20 06:04:09;;;;;;;8.83;3.20;;;;;;;;;;5066020;28;20180;-56
2022/01/20 06:06:41;;;;;;;9.87;2.70;;;;;;;;;;5068450;28;20233;-56
2022/01/20 06:09:11;;;;;;;4.73;2.30;;;;;;;;;;5065174;28;20172;-57
2022/01/20 06:11:37;;;;;;;7.77;2.40;;;;;;;;;;5085727;28;20183;-57
2022/01/20 06:14:07;;;;;;;8.60;2.27;;;;;;;;;;5068715;28;20180;-56
2022/01/20 06:16:35;;;;;;;10.23;2.20;;;;;;;;;;5084882;28;20292;-56
2022/01/20 06:19:07;;;;;;;7.53;2.80;;;;;;;;;;5067970;28;20176;-55
2022/01/20 06:21:37;;;;;;;11.73;2.93;;;;;;;;;;5080275;28;20203;-56
2022/01/20 06:24:03;;;;;;;8.13;2.90;;;;;;;;;;5089415;28;20169;-56
2022/01/20 06:26:30;;;;;;;8.30;2.77;;;;;;;;;;5086169;28;20177;-56
2022/01/20 06:28:59;;;;;;;6.57;2.47;;;;;;;;;;5081508;28;20172;-56
2022/01/20 06:31:29;;;;;;;5.83;2.30;;;;;;;;;;5089194;28;20180;-56
2022/01/20 06:33:57;;;;;;;4.70;2.30;;;;;;;;;;5071982;28;21098;-56
2022/01/20 06:36:24;;;;;;;10.03;2.50;;;;;;;;;;5085265;28;20199;-56
2022/01/20 06:38:54;;;;;;;6.20;2.07;;;;;;;;;;5072075;28;20172;-56
2022/01/20 06:41:23;;;;;;;8.90;2.77;;;;;;;;;;5071353;28;20184;-57
2022/01/20 06:43:49;;;;;;;9.07;2.27;;;;;;;;;;5055794;28;20254;-55
2022/01/20 06:46:15;;;;;;;8.23;2.33;;;;;;;;;;5078208;28;20187;-55
2022/01/20 06:48:41;;;;;;;3.67;1.60;;;;;;;;;;5067937;28;20571;-55
2022/01/20 06:51:08;;;;;;;4.83;2.10;;;;;;;;;;5086685;28;20552;-56
2022/01/20 06:53:34;;;;;;;8.63;2.27;;;;;;;;;;5089650;28;20220;-57
2022/01/20 06:56:02;;;;;;;6.77;3.10;;;;;;;;;;5085997;28;20221;-56
2022/01/20 06:58:28;;;;;;;6.03;1.80;;;;;;;;;;5077210;28;20679;-55
2022/01/20 07:00:55;;;;;;;5.17;1.77;;;;;;;;;;5083010;28;20254;-55
2022/01/20 07:03:21;;;;;;;11.70;2.93;;;;;;;;;;5072911;28;20612;-55
2022/01/20 07:05:47;;;;;;;7.93;2.87;;;;;;;;;;5083527;28;20191;-55
2022/01/20 07:08:13;;;;;;;8.60;2.30;;;;;;;;;;5088685;28;20665;-56
2022/01/20 07:10:43;;;;;;;7.53;2.10;;;;;;;;;;5075302;28;20643;-56
2022/01/20 07:13:09;;;;;;;11.97;2.43;;;;;;;;;;5069230;28;20188;-56
2022/01/20 07:15:38;;;;;;;7.50;2.33;;;;;;;;;;5069062;28;20184;-56
2022/01/20 07:18:04;;;;;;;5.63;2.47;;;;;;;;;;5067875;28;20187;-56
2022/01/20 07:20:35;;;;;;;5.50;2.90;;;;;;;;;;5088775;28;20172;-56
2022/01/20 07:23:04;;;;;;;9.13;2.83;;;;;;;;;;5070937;28;20188;-56
2022/01/20 07:25:31;;;;;;;9.43;2.53;;;;;;;;;;5070655;28;20673;-56
2022/01/20 07:27:57;;;;;;;8.77;3.10;;;;;;;;;;5079422;28;20183;-56
2022/01/20 07:30:23;;;;;;;12.30;3.43;;;;;;;;;;5078220;28;20182;-56
2022/01/20 07:32:50;;;;;;;11.63;3.87;;;;;;;;;;5089232;28;20168;-56
2022/01/20 07:35:16;;;;;;;11.50;3.70;;;;;;;;;;5071888;28;20187;-56
2022/01/20 07:37:42;;;;;;;12.17;3.43;;;;;;;;;;5070898;28;20196;-56
2022/01/20 07:40:09;;;;;;;8.47;3.90;;;;;;;;;;5069922;28;20275;-56
2022/01/20 07:42:35;;;;;;;12.20;4.93;;;;;;;;;;5088385;28;20179;-56
2022/01/20 07:45:01;;;;;;;9.30;3.80;;;;;;;;;;5088494;28;20345;-56
2022/01/20 07:47:28;;;;;;;12.60;3.90;;;;;;;;;;5070021;28;20642;-55
2022/01/20 07:49:54;;;;;;;12.23;4.07;;;;;;;;;;5070298;28;20274;-56
2022/01/20 07:52:20;;;;;;;12.00;3.43;;;;;;;;;;5068581;28;20740;-56
2022/01/20 07:54:47;;;;;;;12.87;4.00;;;;;;;;;;5054110;28;20294;-56
2022/01/20 07:57:13;;;;;;;11.20;3.33;;;;;;;;;;5068193;28;20611;-56
2022/01/20 07:59:43;;;;;;;8.80;4.03;;;;;;;;;;5053444;28;20181;-56
2022/01/20 08:02:09;;;;;;;15.77;4.13;;;;;;;;;;5057064;28;20176;-57
2022/01/20 08:04:36;;;;;;;10.67;3.47;;;;;;;;;;5057288;28;20671;-56
2022/01/20 08:07:02;;;;;;;8.40;2.67;;;;;;;;;;5060441;28;20184;-57
2022/01/20 08:09:32;;;;;;;9.30;3.33;;;;;;;;;;5053343;28;20179;-56
2022/01/20 08:12:01;;;;;;;11.53;3.27;;;;;;;;;;5080114;28;20211;-56
2022/01/20 08:14:28;;;;;;;9.07;2.63;;;;;;;;;;5065539;28;20188;-56
2022/01/20 08:16:54;;;;;;;11.80;3.53;;;;;;;;;;5064217;28;20252;-56
2022/01/20 08:19:20;;;;;;;12.47;3.10;;;;;;;;;;5050693;28;20184;-56
2022/01/20 08:21:46;;;;;;;7.13;3.40;;;;;;;;;;5049677;28;20196;-55
2022/01/20 08:24:12;;;;;;;11.00;3.43;;;;;;;;;;5066769;28;20235;-56
2022/01/20 08:26:42;;;;;;;10.37;3.20;;;;;;;;;;5066536;28;20222;-56
2022/01/20 08:29:11;;;;;;;8.67;2.80;;;;;;;;;;5064733;28;20301;-56
2022/01/20 08:31:37;;;;;;;12.90;3.43;;;;;;;;;;5056988;28;20189;-56
2022/01/20 08:34:06;;;;;;;11.13;3.00;;;;;;;;;;5055475;28;20180;-56
2022/01/20 08:36:33;;;;;;;10.43;3.10;;;;;;;;;;5036344;28;20289;-57
2022/01/20 08:39:02;;;;;;;9.23;3.70;;;;;;;;;;5049384;28;20180;-56
2022/01/20 08:41:28;;;;;;;9.27;2.20;;;;;;;;;;5061832;28;20177;-56
2022/01/20 08:43:54;;;;;;;12.10;2.80;;;;;;;;;;5048461;28;20184;-56
2022/01/20 08:46:25;;;;;;;6.83;2.53;;;;;;;;;;5065484;28;20177;-56
2022/01/20 08:48:51;;;;;;;11.97;2.97;;;;;;;;;;5050233;28;20184;-57
2022/01/20 08:51:17;;;;;;;6.27;2.63;;;;;;;;;;5068998;28;20180;-56
2022/01/20 08:53:43;;;;;;;7.53;2.53;;;;;;;;;;5089088;28;20612;-56
2022/01/20 08:56:12;;;;;;;13.50;2.57;;;;;;;;;;5076605;28;20215;-56
2022/01/20 08:58:39;;;;;;;10.83;2.77;;;;;;;;;;5089595;28;20184;-55
2022/01/20 09:01:10;;;;;;;9.07;2.50;;;;;;;;;;5080201;28;20187;-56
2022/01/20 09:03:42;;;;;;;5.77;2.80;;;;;;;;;;5053421;28;20177;-57
2022/01/20 09:06:08;;;;;;;8.67;2.23;;;;;;;;;;5069661;28;20198;-57
2022/01/20 09:08:35;;;;;;;8.07;3.57;;;;;;;;;;5073168;28;20184;-56
2022/01/20 09:11:06;;;;;;;6.33;1.83;;;;;;;;;;5091022;28;20183;-56
2022/01/20 09:16:17;;;;;;;7.27;2.10;;;;;;;;;;5082624;28;20214;-57
2022/01/20 09:18:43;;;;;;;8.53;1.90;;;;;;;;;;5080664;28;20201;-55
2022/01/20 09:21:13;;;;;;;9.67;2.53;;;;;;;;;;5090342;28;20183;-56
2022/01/20 09:23:39;;;;;;;5.23;2.20;;;;;;;;;;5103325;28;20180;-56
2022/01/20 09:26:05;;;;;;;6.37;2.03;;;;;;;;;;5090519;28;20185;-56
2022/01/20 09:28:31;;;;;;;9.63;2.40;;;;;;;;;;5072778;28;20176;-56
2022/01/20 09:31:00;;;;;;;9.67;2.83;;;;;;;;;;5072189;28;20224;-56
2022/01/20 09:33:28;;;;;;;5.53;2.47;;;;;;;;;;5071928;28;20681;-56
2022/01/20 09:35:57;;;;;;;6.30;2.57;;;;;;;;;;5077065;28;20632;-57
2022/01/20 09:38:24;;;;;;;6.23;2.07;;;;;;;;;;5073028;28;20222;-56
2022/01/20 09:40:53;;;;;;;7.83;2.40;;;;;;;;;;5090614;28;20207;-56
2022/01/20 09:43:22;;;;;;;11.00;2.70;;;;;;;;;;5072995;28;20628;-56
2022/01/20 09:45:54;;;;;;;5.30;2.33;;;;;;;;;;5071817;28;20718;-56
2022/01/20 09:48:21;;;;;;;9.20;3.10;;;;;;;;;;5090442;28;20180;-56
2022/01/20 09:50:51;;;;;;;7.37;2.70;;;;;;;;;;5072204;28;20472;-56
2022/01/20 09:53:17;;;;;;;3.97;2.60;;;;;;;;;;5072329;28;20721;-55
2022/01/20 09:55:43;;;;;;;12.17;2.73;;;;;;;;;;5090162;28;20164;-56
2022/01/20 09:58:11;;;;;;;11.33;3.80;;;;;;;;;;5089555;28;20673;-56
2022/01/20 10:00:38;;;;;;;7.97;3.47;;;;;;;;;;5070979;28;20183;-56
2022/01/20 10:03:09;;;;;;;9.53;3.10;;;;;;;;;;5072349;28;20179;-56
2022/01/20 10:05:39;;;;;;;8.73;2.90;;;;;;;;;;5090669;28;20577;-56
2022/01/20 10:08:10;;;;;;;7.33;3.60;;;;;;;;;;5072588;28;20183;-56
2022/01/20 10:10:46;;;;;;;9.03;3.67;;;;;;;;;;5071812;28;20187;-56
2022/01/20 10:13:13;;;;;;;6.87;3.03;;;;;;;;;;5071305;28;20179;-56
2022/01/20 10:15:39;;;;;;;4.40;2.53;;;;;;;;;;5071002;28;20184;-56
2022/01/20 10:18:10;;;;;;;8.73;3.57;;;;;;;;;;5090220;28;20650;-56
2022/01/20 10:20:50;;;;;;;8.60;2.63;;;;;;;;;;5071347;28;20573;-56
2022/01/20 10:23:30;;;;;;;7.63;2.40;;;;;;;;;;5071411;28;20203;-56
2022/01/20 10:26:06;;;;;;;8.27;2.30;;;;;;;;;;5089273;28;20527;-56
2022/01/20 10:28:55;;;;;;;6.17;1.83;;;;;;;;;;5090162;28;20182;-56
2022/01/20 10:31:51;;;;;;;4.07;1.80;;;;;;;;;;5047946;28;20318;-56
2022/01/20 10:34:32;;;;;;;10.40;2.40;;;;;;;;;;5062538;28;20700;-55
2022/01/20 10:37:01;;;;;;;9.27;2.17;;;;;;;;;;5076598;28;20194;-56
2022/01/20 10:39:35;;;;;;;9.57;2.70;;;;;;;;;;5072716;28;20192;-57
2022/01/20 10:42:03;;;;;;;10.27;1.87;;;;;;;;;;5089301;28;20197;-56
2022/01/20 10:44:40;;;;;;;9.70;1.70;;;;;;;;;;5090044;28;20172;-56
2022/01/20 10:47:13;;;;;;;6.63;2.30;;;;;;;;;;5071217;28;20156;-57
2022/01/20 10:49:43;;;;;;;5.63;1.93;;;;;;;;;;5069678;28;20175;-56
2022/01/20 10:52:10;;;;;;;4.23;1.70;;;;;;;;;;5071039;28;20310;-56
2022/01/20 10:54:37;;;;;;;4.77;2.10;;;;;;;;;;5070944;28;20266;-56
2022/01/20 10:57:03;;;;;;;5.90;1.73;;;;;;;;;;5088635;28;20203;-57
2022/01/20 10:59:29;;;;;;;8.47;2.70;;;;;;;;;;5070937;28;20172;-56
2022/01/20 11:02:05;;;;;;;3.93;1.77;;;;;;;;;;5070560;28;20612;-56
2022/01/20 11:04:31;;;;;;;6.90;1.73;;;;;;;;;;5062484;28;20183;-55
2022/01/20 11:07:01;;;;;;;6.63;1.60;;;;;;;;;;5086859;28;20184;-56
2022/01/20 11:09:29;;;;;;;10.53;2.93;;;;;;;;;;5092277;28;20236;-56
2022/01/20 11:11:56;;;;;;;6.57;2.40;;;;;;;;;;5088388;28;20179;-55
2022/01/20 11:14:22;;;;;;;8.27;2.17;;;;;;;;;;5079748;28;20186;-55
2022/01/20 11:16:48;;;;;;;7.30;1.53;;;;;;;;;;5084074;28;20375;-58
2022/01/20 11:19:19;;;;;;;5.70;2.10;;;;;;;;;;5088537;28;20485;-56
2022/01/20 11:21:45;;;;;;;9.20;2.07;;;;;;;;;;5063811;28;20225;-56
2022/01/20 11:24:18;;;;;;;6.33;2.47;;;;;;;;;;5061193;28;20184;-56
2022/01/20 11:26:57;;;;;;;8.80;2.83;;;;;;;;;;5069517;28;20187;-57
2022/01/20 11:29:45;;;;;;;3.67;1.80;;;;;;;;;;5070686;28;20188;-56
2022/01/20 11:32:29;;;;;;;7.80;1.70;;;;;;;;;;5069520;28;20180;-56
2022/01/20 11:34:56;;;;;;;4.00;1.80;;;;;;;;;;5077604;28;20316;-56
2022/01/20 11:37:23;;;;;;;3.10;1.70;;;;;;;;;;5100720;28;20659;-56
2022/01/20 11:40:10;;;;;;;5.73;2.27;;;;;;;;;;5088392;28;20180;-56
2022/01/20 11:42:40;;;;;;;6.83;1.80;;;;;;;;;;5087979;28;20182;-56
2022/01/20 11:45:26;;;;;;;7.73;2.27;;;;;;;;;;5069607;28;20175;-56
2022/01/20 11:47:53;;;;;;;7.93;2.00;;;;;;;;;;5062936;28;20215;-56
2022/01/20 11:50:20;;;;;;;5.53;2.10;;;;;;;;;;5088145;28;20219;-56
2022/01/20 11:52:47;;;;;;;9.67;2.43;;;;;;;;;;5088361;28;20678;-57
2022/01/20 11:55:14;;;;;;;6.77;2.03;;;;;;;;;;5088111;28;20176;-55
2022/01/20 11:57:45;;;;;;;8.97;2.30;;;;;;;;;;5068599;28;20228;-55
2022/01/20 12:00:21;;;;;;;5.97;1.53;;;;;;;;;;5087130;28;20198;-56
2022/01/20 12:02:50;;;;;;;6.50;2.43;;;;;;;;;;5069771;28;20183;-56
2022/01/20 12:05:40;;;;;;;7.90;2.03;;;;;;;;;;5069640;28;20179;-56
2022/01/20 12:08:20;;;;;;;5.23;1.90;;;;;;;;;;5069921;28;20191;-57
2022/01/20 12:11:09;;;;;;;6.80;2.33;;;;;;;;;;5088384;28;20179;-56
2022/01/20 12:13:49;;;;;;;4.60;1.60;;;;;;;;;;5069599;28;20560;-56
2022/01/20 12:16:40;;;;;;;5.53;2.17;;;;;;;;;;5068780;28;20207;-56
2022/01/20 12:19:13;;;;;;;11.57;2.70;;;;;;;;;;5059071;28;20656;-56
2022/01/20 12:21:46;;;;;;;8.87;2.97;;;;;;;;;;5069312;28;20240;-56
2022/01/20 12:24:13;;;;;;;6.63;2.00;;;;;;;;;;5053678;28;20182;-56
2022/01/20 12:26:39;;;;;;;6.33;2.67;;;;;;;;;;5068024;28;20275;-56
2022/01/20 12:29:07;;;;;;;8.30;2.40;;;;;;;;;;5088259;28;20180;-56
2022/01/20 12:31:45;;;;;;;9.93;2.63;;;;;;;;;;5086456;28;20392;-56
2022/01/20 12:34:12;;;;;;;7.20;2.20;;;;;;;;;;5070017;28;20187;-56
2022/01/20 12:36:41;;;;;;;9.00;2.70;;;;;;;;;;5069149;28;20666;-56
2022/01/20 12:39:11;;;;;;;9.67;2.57;;;;;;;;;;5066995;28;20180;-56
2022/01/20 12:41:37;;;;;;;6.60;1.90;;;;;;;;;;5069239;28;20184;-56
2022/01/20 12:44:05;;;;;;;5.07;2.47;;;;;;;;;;5069672;28;20186;-55
2022/01/20 12:46:36;;;;;;;5.00;1.73;;;;;;;;;;5068518;28;20650;-54
2022/01/20 12:49:13;;;;;;;6.50;1.80;;;;;;;;;;5069956;28;20521;-56
2022/01/20 12:51:44;;;;;;;4.17;2.07;;;;;;;;;;5087352;28;20281;-56
2022/01/20 12:54:29;;;;;;;8.80;3.50;;;;;;;;;;5052634;28;20332;-56
2022/01/20 12:57:05;;;;;;;7.83;2.07;;;;;;;;;;5083389;28;20230;-57
2022/01/20 12:59:42;;;;;;;5.47;2.60;;;;;;;;;;5068865;28;20624;-57
2022/01/20 13:02:29;;;;;;;7.40;2.30;;;;;;;;;;5083217;28;20180;-56
2022/01/20 13:05:03;;;;;;;9.37;2.67;;;;;;;;;;5069434;28;20556;-56
2022/01/20 13:07:33;;;;;;;3.67;1.80;;;;;;;;;;5069359;28;20552;-56
2022/01/20 13:10:05;;;;;;;5.07;2.23;;;;;;;;;;5076887;28;20634;-55
2022/01/20 13:12:41;;;;;;;4.27;2.53;;;;;;;;;;5074874;28;20229;-56
2022/01/20 13:15:16;;;;;;;3.73;2.33;;;;;;;;;;5078303;28;20256;-56
2022/01/20 13:17:44;;;;;;;5.37;2.40;;;;;;;;;;5080429;28;20558;-56
2022/01/20 13:20:21;;;;;;;5.07;3.13;;;;;;;;;;5066449;28;20658;-55
2022/01/20 13:22:55;;;;;;;4.60;2.70;;;;;;;;;;5073635;28;20172;-55
2022/01/20 13:25:36;;;;;;;8.40;3.03;;;;;;;;;;5072899;28;20163;-55
2022/01/20 13:28:11;;;;;;;5.40;3.00;;;;;;;;;;5068233;28;20513;-55
2022/01/20 13:30:47;;;;;;;7.17;2.70;;;;;;;;;;5080667;28;20202;-54
2022/01/20 13:33:21;;;;;;;5.40;2.90;;;;;;;;;;5109758;28;20190;-55
2022/01/20 13:35:48;;;;;;;4.20;2.20;;;;;;;;;;5095042;28;20198;-56
2022/01/20 13:38:34;;;;;;;7.37;2.23;;;;;;;;;;5072812;28;20589;-55
2022/01/20 13:41:08;;;;;;;4.60;2.10;;;;;;;;;;5073855;28;20667;-56
2022/01/20 13:46:20;;;;;;;4.30;2.30;;;;;;;;;;5091664;28;20182;-55
2022/01/20 13:48:46;;;;;;;6.20;1.83;;;;;;;;;;5072692;28;20172;-55
2022/01/20 13:51:18;;;;;;;4.40;2.13;;;;;;;;;;5089648;28;20179;-55
2022/01/20 13:53:58;;;;;;;9.23;2.63;;;;;;;;;;5056185;28;20212;-56
2022/01/20 13:56:24;;;;;;;5.77;2.17;;;;;;;;;;5069110;28;20306;-56
2022/01/20 13:58:50;;;;;;;3.07;2.10;;;;;;;;;;5070357;28;20536;-56
2022/01/20 14:01:21;;;;;;;3.17;1.90;;;;;;;;;;5067951;28;20245;-57
2022/01/20 14:03:47;;;;;;;3.70;2.07;;;;;;;;;;5051710;28;20187;-56
2022/01/20 14:06:15;;;;;;;3.27;1.70;;;;;;;;;;5070472;28;20208;-56
2022/01/20 14:08:42;;;;;;;4.07;1.63;;;;;;;;;;5051720;28;20717;-56
2022/01/20 14:11:08;;;;;;;3.40;1.93;;;;;;;;;;5051570;28;20189;-55
2022/01/20 14:13:40;;;;;;;3.63;1.30;;;;;;;;;;5052636;28;20258;-55
2022/01/20 14:16:07;;;;;;;6.87;2.13;;;;;;;;;;5051256;28;20703;-55
2022/01/20 14:18:41;;;;;;;4.50;1.77;;;;;;;;;;5045675;28;20172;-55
2022/01/20 14:21:08;;;;;;;5.60;2.03;;;;;;;;;;5066556;28;20175;-55
2022/01/20 14:23:37;;;;;;;3.83;1.60;;;;;;;;;;5057507;28;20266;-55
2022/01/20 14:26:05;;;;;;;9.57;2.23;;;;;;;;;;5072715;28;20717;-55
2022/01/20 14:28:32;;;;;;;6.57;2.30;;;;;;;;;;5064757;28;20180;-55
2022/01/20 14:30:58;;;;;;;4.97;1.93;;;;;;;;;;5054927;28;20173;-55
2022/01/20 14:33:27;;;;;;;7.63;1.83;;;;;;;;;;5068061;28;20659;-55
2022/01/20 14:35:53;;;;;;;4.80;1.43;;;;;;;;;;5042170;28;20279;-55
2022/01/20 14:38:26;;;;;;;5.03;1.63;;;;;;;;;;5040627;28;20176;-55
2022/01/20 14:40:56;;;;;;;6.87;1.77;;;;;;;;;;5049917;28;20544;-55
2022/01/20 14:43:24;;;;;;;4.80;1.67;;;;;;;;;;5070246;28;20180;-56
2022/01/20 14:45:52;;;;;;;5.77;1.80;;;;;;;;;;5049675;28;20199;-55
2022/01/20 14:48:18;;;;;;;5.13;1.87;;;;;;;;;;5036531;28;20209;-56
2022/01/20 14:50:49;;;;;;;4.60;1.70;;;;;;;;;;5062131;28;20181;-55
2022/01/20 14:53:19;;;;;;;5.87;1.87;;;;;;;;;;5054614;28;20224;-56
2022/01/20 14:55:46;;;;;;;4.87;1.40;;;;;;;;;;5053997;28;20275;-55
2022/01/20 14:58:16;;;;;;;7.37;1.60;;;;;;;;;;5051881;28;20288;-56
2022/01/20 15:00:42;;;;;;;4.00;1.80;;;;;;;;;;5078909;28;20738;-55
2022/01/20 15:03:09;;;;;;;5.70;2.00;;;;;;;;;;5083925;28;20188;-56
2022/01/20 15:05:35;;;;;;;4.30;1.73;;;;;;;;;;5085952;28;20677;-55
2022/01/20 15:08:01;;;;;;;2.30;1.37;;;;;;;;;;5068415;28;20650;-55
2022/01/20 15:10:28;;;;;;;4.97;2.20;;;;;;;;;;5062908;28;20183;-55
2022/01/20 15:13:00;;;;;;;5.60;2.33;;;;;;;;;;5080299;28;20233;-56
2022/01/20 15:15:26;;;;;;;4.87;1.83;;;;;;;;;;5066457;28;20421;-55
2022/01/20 15:17:52;;;;;;;4.70;1.80;;;;;;;;;;5087917;28;20195;-55
2022/01/20 15:20:19;;;;;;;9.00;2.70;;;;;;;;;;5079943;28;20583;-56
2022/01/20 15:22:45;;;;;;;3.17;1.47;;;;;;;;;;5067423;28;20198;-55
2022/01/20 15:25:11;;;;;;;4.10;1.40;;;;;;;;;;5065353;28;20232;-55
2022/01/20 15:27:37;;;;;;;3.97;1.60;;;;;;;;;;5060609;28;20196;-55
2022/01/20 15:30:05;;;;;;;5.73;1.60;;;;;;;;;;5075694;28;20183;-55
2022/01/20 15:32:31;;;;;;;4.90;1.70;;;;;;;;;;5056396;28;20253;-55
2022/01/20 15:34:58;;;;;;;3.53;1.83;;;;;;;;;;5078269;28;20176;-55
2022/01/20 15:37:24;;;;;;;4.73;1.83;;;;;;;;;;5067250;28;20304;-55
2022/01/20 15:39:53;;;;;;;4.17;1.73;;;;;;;;;;5074967;28;20568;-54
2022/01/20 15:42:22;;;;;;;4.27;1.70;;;;;;;;;;5058845;28;20180;-55
2022/01/20 15:44:48;;;;;;;9.80;2.47;;;;;;;;;;5076141;28;20203;-55
2022/01/20 15:47:15;;;;;;;5.67;1.70;;;;;;;;;;5086911;28;20690;-55
2022/01/20 15:49:41;;;;;;;6.27;1.37;;;;;;;;;;5062600;28;20191;-55
2022/01/20 15:52:07;;;;;;;10.93;2.10;;;;;;;;;;5069346;28;20254;-55
2022/01/20 15:54:34;;;;;;;3.50;1.77;;;;;;;;;;5077152;28;20747;-55
2022/01/20 15:57:00;;;;;;;11.17;2.63;;;;;;;;;;5068719;28;20294;-55
2022/01/20 15:59:26;;;;;;;5.07;1.60;;;;;;;;;;5081543;28;20663;-56
2022/01/20 16:01:55;;;;;;;5.93;2.07;;;;;;;;;;5066238;28;20184;-54
2022/01/20 16:04:24;;;;;;;2.70;1.77;;;;;;;;;;5067938;28;20179;-55